createdAt,value
2023-05-07T00:01:00.507Z,98058.94
2023-05-07T00:03:46.312Z,98200.81
2023-05-07T00:06:33.519Z,98096.78
2023-05-07T00:09:19.035Z,98203.31
2023-05-07T00:12:04.511Z,98079.66
2023-05-07T00:14:50.007Z,98196.25
2023-05-07T00:17:35.462Z,98105.09
2023-05-07T00:20:20.736Z,98238.53
2023-05-07T00:23:06.185Z,98109.13
2023-05-07T00:25:51.496Z,98235.59
2023-05-07T00:28:36.972Z,98087.66
2023-05-07T00:31:22.498Z,98221.13
2023-05-07T00:34:07.949Z,98203.72
2023-05-07T00:36:53.363Z,98208.53
2023-05-07T00:39:38.564Z,98111.91
2023-05-07T00:42:25.084Z,98211.91
2023-05-07T00:45:11.763Z,98044.69
2023-05-07T00:48:00.750Z,98269.06
2023-05-07T00:50:46.826Z,98077.13
2023-05-07T00:53:32.703Z,98052.59
2023-05-07T00:56:18.229Z,98051.13
2023-05-07T00:59:04.329Z,98257.22
2023-05-07T01:01:49.795Z,98268.75
2023-05-07T01:04:36.229Z,98254.28
2023-05-07T01:07:23.760Z,98025.63
2023-05-07T01:10:10.195Z,98091.88
2023-05-07T01:12:56.336Z,98072.44
2023-05-07T01:15:42.175Z,98214.22
2023-05-07T01:18:28.060Z,98193.19
2023-05-07T01:21:17.671Z,98071.72
2023-05-07T01:24:03.747Z,98064.44
2023-05-07T01:26:50.825Z,98096.44
2023-05-07T01:29:37.244Z,98202.97
2023-05-07T01:32:36.895Z,98053.44
2023-05-07T01:35:27.990Z,98277.97
2023-05-07T01:38:13.749Z,98051.50
2023-05-07T01:40:59.391Z,98239.22
2023-05-07T01:43:45.740Z,98087.00
2023-05-07T01:46:33.156Z,98246.06
2023-05-07T01:49:19.658Z,98250.16
2023-05-07T01:52:05.078Z,98284.66
2023-05-07T01:54:50.532Z,98268.00
2023-05-07T01:57:36.410Z,98244.31
2023-05-07T02:00:22.398Z,98122.34
2023-05-07T02:03:07.960Z,98207.75
2023-05-07T02:06:01.344Z,98121.63
2023-05-07T02:08:53.341Z,98245.50
2023-05-07T02:11:39.256Z,98082.16
2023-05-07T02:14:24.531Z,98194.44
2023-05-07T02:17:09.908Z,98238.75
2023-05-07T02:19:55.199Z,98225.56
2023-05-07T02:22:40.667Z,98212.72
2023-05-07T02:25:26.032Z,98242.56
2023-05-07T02:28:11.238Z,98044.91
2023-05-07T02:31:06.934Z,98237.97
2023-05-07T02:33:53.249Z,98231.13
2023-05-07T02:36:38.675Z,98269.69
2023-05-07T02:39:29.548Z,98252.47
2023-05-07T02:42:15.342Z,98105.00
2023-05-07T02:45:01.202Z,98274.22
2023-05-07T02:47:48.051Z,98280.66
2023-05-07T02:50:33.612Z,98252.75
2023-05-07T02:53:19.604Z,98091.50
2023-05-07T02:56:06.812Z,98119.81
2023-05-07T02:58:52.432Z,98203.56
2023-05-07T03:01:40.424Z,98279.19
2023-05-07T03:04:27.809Z,98263.97
2023-05-07T03:07:13.688Z,98085.72
2023-05-07T03:09:59.188Z,98126.19
2023-05-07T03:12:44.671Z,98092.41
2023-05-07T03:15:34.556Z,98315.91
2023-05-07T03:18:20.542Z,98095.84
2023-05-07T03:21:06.283Z,98284.78
2023-05-07T03:23:52.178Z,98146.41
2023-05-07T03:26:38.056Z,98133.22
2023-05-07T03:29:23.292Z,98273.19
2023-05-07T03:32:08.751Z,98143.56
2023-05-07T03:34:54.050Z,98263.31
2023-05-07T03:37:40.864Z,98135.41
2023-05-07T03:40:27.781Z,98259.44
2023-05-07T03:43:14.529Z,98086.47
2023-05-07T03:46:04.914Z,98281.09
2023-05-07T03:48:50.380Z,98158.03
2023-05-07T03:51:38.375Z,98311.63
2023-05-07T03:54:26.488Z,98226.72
2023-05-07T03:57:11.813Z,98336.84
2023-05-07T03:59:57.257Z,98120.97
2023-05-07T04:02:42.766Z,97977.16
2023-05-07T04:05:28.629Z,98316.34
2023-05-07T04:08:18.774Z,98214.06
2023-05-07T04:11:08.186Z,98231.16
2023-05-07T04:13:56.235Z,98329.53
2023-05-07T04:16:43.065Z,98166.19
2023-05-07T04:19:28.415Z,98362.78
2023-05-07T04:22:14.402Z,98307.31
2023-05-07T04:25:01.342Z,98218.94
2023-05-07T04:27:47.073Z,98160.03
2023-05-07T04:30:33.080Z,98189.50
2023-05-07T04:33:18.532Z,98351.38
2023-05-07T04:36:05.799Z,98294.16
2023-05-07T04:38:55.820Z,98088.72
2023-05-07T04:41:41.294Z,98269.94
2023-05-07T04:44:28.726Z,98178.25
2023-05-07T04:47:14.320Z,98350.56
2023-05-07T04:49:59.948Z,98277.19
2023-05-07T04:52:46.272Z,98156.91
2023-05-07T04:55:32.019Z,98330.84
2023-05-07T04:58:17.480Z,98331.34
2023-05-07T05:01:06.132Z,98340.81
2023-05-07T05:03:51.480Z,98344.00
2023-05-07T05:06:39.507Z,98316.81
2023-05-07T05:09:26.053Z,98381.06
2023-05-07T05:12:11.467Z,98357.28
2023-05-07T05:14:57.894Z,98397.91
2023-05-07T05:17:43.516Z,98398.34
2023-05-07T05:20:29.550Z,98323.34
2023-05-07T05:23:15.248Z,98379.91
2023-05-07T05:26:01.171Z,98171.16
2023-05-07T05:28:50.469Z,98207.47
2023-05-07T05:31:39.281Z,98274.19
2023-05-07T05:34:24.536Z,98278.06
2023-05-07T05:37:09.883Z,98362.78
2023-05-07T05:39:56.558Z,98317.72
2023-05-07T05:42:42.558Z,98294.00
2023-05-07T05:45:29.471Z,98355.94
2023-05-07T05:48:15.548Z,98311.59
2023-05-07T05:51:01.369Z,98396.44
2023-05-07T05:53:46.961Z,98198.00
2023-05-07T05:56:33.277Z,98315.03
2023-05-07T05:59:19.082Z,98202.03
2023-05-07T06:02:04.923Z,98379.41
2023-05-07T06:04:51.539Z,98373.44
2023-05-07T06:07:39.273Z,98159.19
2023-05-07T06:10:25.505Z,98330.34
2023-05-07T06:13:11.343Z,98360.66
2023-05-07T06:15:57.487Z,98345.50
2023-05-07T06:18:42.965Z,98326.31
2023-05-07T06:21:28.810Z,98365.88
2023-05-07T06:24:14.338Z,98371.13
2023-05-07T06:27:00.455Z,98378.13
2023-05-07T06:29:49.458Z,98382.03
2023-05-07T06:32:38.227Z,98384.06
2023-05-07T06:35:25.181Z,98204.59
2023-05-07T06:38:10.523Z,98196.91
2023-05-07T06:40:58.151Z,98388.00
2023-05-07T06:43:43.971Z,98281.81
2023-05-07T06:46:50.158Z,98234.31
2023-05-07T06:49:35.989Z,98355.84
2023-05-07T06:52:22.168Z,98405.78
2023-05-07T06:55:10.207Z,98323.53
2023-05-07T06:57:55.968Z,98351.94
2023-05-07T07:00:42.909Z,98368.34
2023-05-07T07:03:28.268Z,98434.84
2023-05-07T07:06:15.570Z,98417.84
2023-05-07T07:09:01.686Z,98410.41
2023-05-07T07:11:48.973Z,98422.97
2023-05-07T07:14:34.266Z,98342.94
2023-05-07T07:17:19.708Z,98397.84
2023-05-07T07:20:05.619Z,98295.16
2023-05-07T07:22:51.457Z,98365.03
2023-05-07T07:25:37.275Z,98152.25
2023-05-07T07:28:23.530Z,98414.97
2023-05-07T07:31:09.054Z,98371.31
2023-05-07T07:33:54.628Z,98375.38
2023-05-07T07:36:46.224Z,98360.22
2023-05-07T07:39:43.538Z,98259.47
2023-05-07T07:42:30.923Z,98331.50
2023-05-07T07:45:17.800Z,98335.56
2023-05-07T07:48:06.691Z,98231.97
2023-05-07T07:50:55.497Z,98385.03
2023-05-07T07:53:42.469Z,98400.94
2023-05-07T07:56:28.465Z,98451.16
2023-05-07T07:59:15.982Z,98432.22
2023-05-07T08:02:02.125Z,98433.69
2023-05-07T08:04:52.291Z,98351.41
2023-05-07T08:07:38.992Z,98438.50
2023-05-07T08:10:24.328Z,98392.22
2023-05-07T08:13:16.225Z,98360.03
2023-05-07T08:16:01.965Z,98434.34
2023-05-07T08:18:48.575Z,98256.72
2023-05-07T08:21:35.896Z,98243.78
2023-05-07T08:24:21.895Z,98246.13
2023-05-07T08:27:07.600Z,98239.94
2023-05-07T08:29:53.807Z,98424.75
2023-05-07T08:32:41.995Z,98252.47
2023-05-07T08:35:28.251Z,98414.56
2023-05-07T08:38:14.372Z,98262.00
2023-05-07T08:41:00.393Z,98448.16
2023-05-07T08:43:52.467Z,98451.66
2023-05-07T08:46:40.998Z,98261.91
2023-05-07T08:49:26.477Z,98436.47
2023-05-07T08:52:13.268Z,98450.50
2023-05-07T08:55:00.147Z,98335.72
2023-05-07T08:57:45.763Z,98273.31
2023-05-07T09:00:33.118Z,98265.25
2023-05-07T09:03:20.443Z,98266.56
2023-05-07T09:06:09.152Z,98288.00
2023-05-07T09:08:56.136Z,98493.97
2023-05-07T09:11:44.874Z,98282.91
2023-05-07T09:14:32.474Z,98435.50
2023-05-07T09:17:19.536Z,98495.44
2023-05-07T09:20:09.314Z,98466.25
2023-05-07T09:22:57.414Z,98345.00
2023-05-07T09:25:44.052Z,98454.75
2023-05-07T09:28:36.767Z,98466.31
2023-05-07T09:31:24.792Z,98475.84
2023-05-07T09:34:13.293Z,98481.09
2023-05-07T09:37:07.290Z,98383.16
2023-05-07T09:39:53.864Z,98492.91
2023-05-07T09:42:42.450Z,98305.06
2023-05-07T09:45:29.183Z,98405.75
2023-05-07T09:48:19.472Z,98461.44
2023-05-07T09:51:19.224Z,98498.53
2023-05-07T09:54:05.784Z,98340.81
2023-05-07T09:56:54.239Z,98298.66
2023-05-07T09:59:44.922Z,98491.78
2023-05-07T10:02:38.088Z,98483.13
2023-05-07T10:05:25.050Z,98472.69
2023-05-07T10:08:13.404Z,98523.97
2023-05-07T10:11:01.056Z,98496.59
2023-05-07T10:13:49.064Z,98473.97
2023-05-07T10:16:37.813Z,98291.44
2023-05-07T10:19:30.423Z,98531.06
2023-05-07T10:22:18.239Z,98409.34
2023-05-07T10:25:15.305Z,98311.75
2023-05-07T10:28:08.979Z,98514.56
2023-05-07T10:31:08.844Z,98349.63
2023-05-07T10:34:01.781Z,98333.09
2023-05-07T10:36:48.415Z,98457.75
2023-05-07T10:39:34.147Z,98508.50
2023-05-07T10:42:20.358Z,98446.47
2023-05-07T10:45:17.767Z,98444.47
2023-05-07T10:48:28.872Z,98520.91
2023-05-07T10:51:23.024Z,98493.53
2023-05-07T10:54:16.624Z,98510.16
2023-05-07T10:57:37.081Z,98520.44
2023-05-07T11:00:45.862Z,98518.19
2023-05-07T11:04:16.309Z,98527.00
2023-05-07T11:07:10.790Z,98530.66
2023-05-07T11:10:06.499Z,98389.84
2023-05-07T11:13:09.816Z,98541.34
2023-05-07T11:16:04.573Z,98492.84
2023-05-07T11:18:57.564Z,98427.19
2023-05-07T11:21:50.874Z,98532.03
2023-05-07T11:24:44.324Z,98562.53
2023-05-07T11:27:32.216Z,98547.69
2023-05-07T11:30:20.726Z,98473.53
2023-05-07T11:33:07.328Z,98516.16
2023-05-07T11:35:56.133Z,98354.72
2023-05-07T11:38:45.469Z,98555.03
2023-05-07T11:41:36.142Z,98193.38
2023-05-07T11:44:21.529Z,98403.69
2023-05-07T11:47:06.872Z,98562.78
2023-05-07T11:49:55.093Z,98524.97
2023-05-07T11:52:41.111Z,98563.59
2023-05-07T11:55:27.325Z,98562.84
2023-05-07T11:58:21.539Z,98485.41
2023-05-07T12:01:10.718Z,98378.88
2023-05-07T12:03:56.123Z,98575.94
2023-05-07T12:06:41.589Z,98472.50
2023-05-07T12:09:29.192Z,98584.22
2023-05-07T12:12:19.468Z,98539.97
2023-05-07T12:15:05.141Z,98521.50
2023-05-07T12:17:51.667Z,98552.88
2023-05-07T12:20:38.437Z,98584.38
2023-05-07T12:23:24.584Z,98386.19
2023-05-07T12:26:10.510Z,98412.94
2023-05-07T12:28:55.992Z,98514.75
2023-05-07T12:31:43.102Z,98570.13
2023-05-07T12:34:29.257Z,98602.66
2023-05-07T12:37:14.882Z,98593.16
2023-05-07T12:40:11.170Z,98390.75
2023-05-07T12:42:57.349Z,98613.25
2023-05-07T12:45:45.198Z,98588.81
2023-05-07T12:48:30.855Z,98436.47
2023-05-07T12:51:17.050Z,98521.31
2023-05-07T12:54:02.615Z,98366.75
2023-05-07T12:56:47.924Z,98569.38
2023-05-07T12:59:33.771Z,98587.56
2023-05-07T13:02:19.160Z,98597.53
2023-05-07T13:05:05.040Z,98422.22
2023-05-07T13:07:57.977Z,98403.28
2023-05-07T13:10:43.938Z,98597.13
2023-05-07T13:13:32.375Z,98601.50
2023-05-07T13:16:18.283Z,98597.13
2023-05-07T13:19:07.244Z,98470.00
2023-05-07T13:21:52.573Z,98405.31
2023-05-07T13:24:38.031Z,98364.56
2023-05-07T13:27:23.537Z,98596.78
2023-05-07T13:30:09.090Z,98627.28
2023-05-07T13:32:56.862Z,98586.13
2023-05-07T13:35:43.682Z,98595.31
2023-05-07T13:38:33.437Z,98603.78
2023-05-07T13:41:20.243Z,98599.72
2023-05-07T13:44:05.742Z,98550.66
2023-05-07T13:46:51.239Z,98373.56
2023-05-07T13:49:36.754Z,98404.25
2023-05-07T13:52:22.496Z,98439.50
2023-05-07T13:55:08.343Z,98430.69
2023-05-07T13:57:58.672Z,98549.41
2023-05-07T14:00:44.915Z,98498.91
2023-05-07T14:03:33.068Z,98603.44
2023-05-07T14:06:18.970Z,98587.75
2023-05-07T14:09:05.183Z,98577.00
2023-05-07T14:11:52.319Z,98605.66
2023-05-07T14:14:37.863Z,98601.97
2023-05-07T14:17:26.334Z,98464.66
2023-05-07T14:20:13.179Z,98564.44
2023-05-07T14:22:59.245Z,98634.16
2023-05-07T14:25:44.672Z,98462.56
2023-05-07T14:28:30.107Z,98413.72
2023-05-07T14:31:15.703Z,98595.97
2023-05-07T14:34:03.319Z,98457.47
2023-05-07T14:36:48.942Z,98452.50
2023-05-07T14:39:34.389Z,98138.78
2023-05-07T14:42:20.462Z,98416.66
2023-05-07T14:45:07.055Z,98427.41
2023-05-07T14:47:52.617Z,98604.88
2023-05-07T14:50:37.841Z,98437.34
2023-05-07T14:53:23.746Z,98430.69
2023-05-07T14:56:09.551Z,98429.25
2023-05-07T14:58:55.094Z,98617.81
2023-05-07T15:01:43.647Z,98626.97
2023-05-07T15:04:28.852Z,98431.13
2023-05-07T15:07:18.574Z,98445.81
2023-05-07T15:10:04.353Z,98604.59
2023-05-07T15:12:49.903Z,98485.84
2023-05-07T15:15:35.568Z,98610.81
2023-05-07T15:18:22.853Z,98642.75
2023-05-07T15:21:08.515Z,98463.78
2023-05-07T15:23:54.940Z,98465.25
2023-05-07T15:26:40.410Z,98624.38
2023-05-07T15:29:26.061Z,98630.91
2023-05-07T15:32:12.156Z,98472.44
2023-05-07T15:34:57.979Z,98578.47
2023-05-07T15:37:43.526Z,98504.78
2023-05-07T15:40:29.459Z,98639.22
2023-05-07T15:43:14.981Z,98590.28
2023-05-07T15:46:01.378Z,98465.88
2023-05-07T15:48:48.206Z,98583.00
2023-05-07T15:51:35.950Z,98588.88
2023-05-07T15:54:21.371Z,98616.47
2023-05-07T15:57:10.222Z,98694.31
2023-05-07T15:59:55.589Z,98634.59
2023-05-07T16:02:41.021Z,98599.78
2023-05-07T16:05:26.858Z,98648.94
2023-05-07T16:08:12.044Z,98614.22
2023-05-07T16:10:57.589Z,98518.38
2023-05-07T16:13:42.840Z,98668.28
2023-05-07T16:16:30.178Z,98622.34
2023-05-07T16:19:15.921Z,98654.81
2023-05-07T16:22:01.263Z,98478.44
2023-05-07T16:24:46.820Z,98688.97
2023-05-07T16:27:32.270Z,98561.25
2023-05-07T16:30:17.759Z,98653.78
2023-05-07T16:33:03.477Z,98634.72
2023-05-07T16:35:53.240Z,98692.44
2023-05-07T16:38:38.727Z,98516.88
2023-05-07T16:41:24.556Z,98689.09
2023-05-07T16:44:10.137Z,98546.69
2023-05-07T16:46:55.581Z,98511.38
2023-05-07T16:49:40.901Z,98683.69
2023-05-07T16:52:30.208Z,98597.88
2023-05-07T16:55:15.936Z,98528.47
2023-05-07T16:58:01.642Z,98550.19
2023-05-07T17:00:50.475Z,98707.19
2023-05-07T17:03:36.535Z,98537.69
2023-05-07T17:06:21.771Z,98740.03
2023-05-07T17:09:07.235Z,98716.41
2023-05-07T17:11:52.672Z,98747.63
2023-05-07T17:14:38.019Z,98552.97
2023-05-07T17:17:23.433Z,98543.78
2023-05-07T17:20:09.253Z,98553.75
2023-05-07T17:22:55.645Z,98542.72
2023-05-07T17:25:45.432Z,98734.19
2023-05-07T17:28:31.127Z,98749.78
2023-05-07T17:31:17.486Z,98742.38
2023-05-07T17:34:03.278Z,98742.06
2023-05-07T17:36:48.909Z,98627.44
2023-05-07T17:39:34.390Z,98734.69
2023-05-07T17:42:21.446Z,98719.75
2023-05-07T17:45:07.239Z,98722.88
2023-05-07T17:47:52.754Z,98771.56
2023-05-07T17:50:38.238Z,98764.16
2023-05-07T17:53:24.705Z,98768.56
2023-05-07T17:56:10.263Z,98685.31
2023-05-07T17:58:59.021Z,98587.34
2023-05-07T18:01:44.960Z,98744.09
2023-05-07T18:04:30.351Z,98764.78
2023-05-07T18:07:16.423Z,98578.19
2023-05-07T18:10:02.425Z,98575.06
2023-05-07T18:12:49.203Z,98749.19
2023-05-07T18:15:34.914Z,98640.06
2023-05-07T18:18:20.676Z,98728.44
2023-05-07T18:21:06.372Z,98792.28
2023-05-07T18:23:51.621Z,98805.56
2023-05-07T18:26:37.910Z,98767.50
2023-05-07T18:29:24.396Z,98796.63
2023-05-07T18:32:10.663Z,98819.53
2023-05-07T18:34:56.385Z,98630.34
2023-05-07T18:37:41.769Z,98825.94
2023-05-07T18:40:27.508Z,98803.13
2023-05-07T18:43:13.217Z,98663.03
2023-05-07T18:45:58.734Z,98825.91
2023-05-07T18:48:44.705Z,98814.25
2023-05-07T18:51:30.213Z,98674.31
2023-05-07T18:54:16.433Z,98882.28
2023-05-07T18:57:02.163Z,98889.22
2023-05-07T18:59:47.566Z,98718.84
2023-05-07T19:02:33.608Z,98881.16
2023-05-07T19:05:19.896Z,98705.06
2023-05-07T19:08:06.333Z,98868.03
2023-05-07T19:10:51.938Z,98669.19
2023-05-07T19:13:37.432Z,98879.00
2023-05-07T19:16:23.168Z,98826.31
2023-05-07T19:19:08.478Z,98727.81
2023-05-07T19:21:54.086Z,98844.81
2023-05-07T19:24:40.956Z,98823.38
2023-05-07T19:27:26.434Z,98888.34
2023-05-07T19:30:12.528Z,98845.06
2023-05-07T19:33:01.687Z,98910.81
2023-05-07T19:35:47.411Z,98731.44
2023-05-07T19:38:33.801Z,98899.03
2023-05-07T19:41:20.941Z,98868.59
2023-05-07T19:44:06.427Z,98908.03
2023-05-07T19:46:52.697Z,98894.88
2023-05-07T19:49:38.421Z,98771.88
2023-05-07T19:52:24.037Z,98708.63
2023-05-07T19:55:10.366Z,98876.38
2023-05-07T19:57:56.029Z,98882.50
2023-05-07T20:00:43.176Z,98903.22
2023-05-07T20:03:30.656Z,98815.44
2023-05-07T20:06:16.483Z,98956.97
2023-05-07T20:09:01.784Z,98882.31
2023-05-07T20:11:47.117Z,98864.78
2023-05-07T20:14:32.762Z,98890.81
2023-05-07T20:17:19.707Z,98940.56
2023-05-07T20:20:05.862Z,98938.69
2023-05-07T20:22:51.131Z,98936.78
2023-05-07T20:25:36.945Z,98945.03
2023-05-07T20:28:22.224Z,98603.88
2023-05-07T20:31:07.589Z,98876.88
2023-05-07T20:33:53.112Z,98755.97
2023-05-07T20:36:38.772Z,98939.88
2023-05-07T20:39:24.716Z,98758.28
2023-05-07T20:42:10.244Z,98763.78
2023-05-07T20:44:56.244Z,98899.31
2023-05-07T20:47:42.275Z,98770.97
2023-05-07T20:50:27.889Z,98938.94
2023-05-07T20:53:13.366Z,99006.09
2023-05-07T20:55:59.446Z,98833.19
2023-05-07T20:58:45.149Z,98979.63
2023-05-07T21:01:30.639Z,98804.06
2023-05-07T21:04:16.091Z,98860.09
2023-05-07T21:07:01.727Z,98944.22
2023-05-07T21:09:47.148Z,98997.06
2023-05-07T21:12:32.743Z,99001.31
2023-05-07T21:15:18.254Z,99007.16
2023-05-07T21:18:03.895Z,99007.78
2023-05-07T21:20:49.293Z,98826.53
2023-05-07T21:23:34.565Z,99037.41
2023-05-07T21:26:21.865Z,98966.56
2023-05-07T21:29:08.936Z,98868.84
2023-05-07T21:31:54.425Z,99048.00
2023-05-07T21:34:39.735Z,99006.69
2023-05-07T21:37:25.027Z,99029.13
2023-05-07T21:40:10.981Z,99022.31
2023-05-07T21:42:56.601Z,98929.81
2023-05-07T21:45:42.000Z,98848.63
2023-05-07T21:48:27.361Z,98877.75
2023-05-07T21:51:13.378Z,98881.44
2023-05-07T21:53:58.912Z,99045.16
2023-05-07T21:56:44.408Z,99057.84
2023-05-07T21:59:29.778Z,99076.00
2023-05-07T22:02:15.059Z,98987.31
2023-05-07T22:05:00.581Z,99056.50
2023-05-07T22:07:46.051Z,98936.69
2023-05-07T22:10:31.833Z,98873.84
2023-05-07T22:13:17.393Z,98874.53
2023-05-07T22:16:02.661Z,99044.47
2023-05-07T22:18:49.603Z,99040.22
2023-05-07T22:21:35.599Z,98984.16
2023-05-07T22:24:20.889Z,99021.16
2023-05-07T22:27:06.189Z,99054.00
2023-05-07T22:29:51.579Z,99033.50
2023-05-07T22:32:37.343Z,98942.78
2023-05-07T22:35:23.796Z,98931.31
2023-05-07T22:38:09.664Z,98871.94
2023-05-07T22:40:54.915Z,99000.84
2023-05-07T22:43:40.289Z,99062.91
2023-05-07T22:46:26.166Z,98858.59
2023-05-07T22:49:11.430Z,98940.81
2023-05-07T22:51:56.817Z,99053.56
2023-05-07T22:54:42.032Z,98855.78
2023-05-07T22:57:27.450Z,98870.00
2023-05-07T23:00:13.809Z,98997.22
2023-05-07T23:02:59.906Z,99051.47
2023-05-07T23:05:45.541Z,99018.00
2023-05-07T23:08:30.915Z,98988.91
2023-05-07T23:11:16.493Z,99058.22
2023-05-07T23:14:01.664Z,99009.44
2023-05-07T23:16:47.032Z,98857.09
2023-05-07T23:19:32.963Z,99027.16
2023-05-07T23:22:18.376Z,99079.97
2023-05-07T23:25:04.692Z,98945.72
2023-05-07T23:27:50.323Z,98874.78
2023-05-07T23:30:35.900Z,99052.56
2023-05-07T23:33:21.316Z,98985.97
2023-05-07T23:36:07.962Z,98859.22
2023-05-07T23:38:53.608Z,99061.69
2023-05-07T23:41:38.956Z,98917.78
2023-05-07T23:44:24.494Z,98873.97
2023-05-07T23:47:09.877Z,98860.06
2023-05-07T23:49:55.114Z,98932.34
2023-05-07T23:52:40.488Z,98884.47
2023-05-07T23:55:25.709Z,98861.53
2023-05-07T23:58:12.097Z,98978.09
